sensor_id;sensor_type;location;lat;lon;timestamp;pressure;altitude;pressure_sealevel;temperature;humidity
51439;BME280;38816;51.142;-0.974;2023-07-31T00:01:17;99474.88;;;15.43;100.00
51439;BME280;38816;51.142;-0.974;2023-07-31T00:03:43;99480.91;;;15.44;100.00
51439;BME280;38816;51.142;-0.974;2023-07-31T00:06:08;99474.03;;;15.44;100.00
51439;BME280;38816;51.142;-0.974;2023-07-31T00:08:33;99474.03;;;15.44;100.00
51439;BME280;38816;51.142;-0.974;2023-07-31T00:10:59;99475.66;;;15.49;100.00
51439;BME280;38816;51.142;-0.974;2023-07-31T00:13:24;99481.72;;;15.48;100.00
51439;BME280;38816;51.142;-0.974;2023-07-31T00:15:50;99474.78;;;15.51;100.00
51439;BME280;38816;51.142;-0.974;2023-07-31T00:18:15;99472.22;;;15.48;100.00
51439;BME280;38816;51.142;-0.974;2023-07-31T00:20:41;99463.63;;;15.46;100.00
51439;BME280;38816;51.142;-0.974;2023-07-31T00:23:06;99459.31;;;15.47;100.00
51439;BME280;38816;51.142;-0.974;2023-07-31T00:25:32;99448.91;;;15.50;100.00
51439;BME280;38816;51.142;-0.974;2023-07-31T00:27:57;99454.09;;;15.50;100.00
51439;BME280;38816;51.142;-0.974;2023-07-31T00:30:23;99437.69;;;15.49;100.00
51439;BME280;38816;51.142;-0.974;2023-07-31T00:32:50;99435.09;;;15.48;100.00
51439;BME280;38816;51.142;-0.974;2023-07-31T00:35:16;99435.97;;;15.50;100.00
51439;BME280;38816;51.142;-0.974;2023-07-31T00:37:41;99420.38;;;15.51;100.00
51439;BME280;38816;51.142;-0.974;2023-07-31T00:40:07;99415.25;;;15.48;100.00
51439;BME280;38816;51.142;-0.974;2023-07-31T00:42:33;99415.25;;;15.48;100.00
51439;BME280;38816;51.142;-0.974;2023-07-31T00:44:58;99416.97;;;15.49;100.00
51439;BME280;38816;51.142;-0.974;2023-07-31T00:47:23;99411.75;;;15.51;100.00
51439;BME280;38816;51.142;-0.974;2023-07-31T00:49:49;99406.53;;;15.52;100.00
51439;BME280;38816;51.142;-0.974;2023-07-31T00:52:15;99394.41;;;15.56;100.00
51439;BME280;38816;51.142;-0.974;2023-07-31T00:54:40;99392.69;;;15.55;100.00
51439;BME280;38816;51.142;-0.974;2023-07-31T00:57:06;99382.31;;;15.55;100.00
51439;BME280;38816;51.142;-0.974;2023-07-31T00:59:33;99379.66;;;15.58;100.00
51439;BME280;38816;51.142;-0.974;2023-07-31T01:01:59;99377.16;;;15.55;100.00
51439;BME280;38816;51.142;-0.974;2023-07-31T01:04:25;99385.78;;;15.55;100.00
51439;BME280;38816;51.142;-0.974;2023-07-31T01:12:02;99365.84;;;15.59;100.00
51439;BME280;38816;51.142;-0.974;2023-07-31T01:14:28;99358.88;;;15.61;100.00
51439;BME280;38816;51.142;-0.974;2023-07-31T01:16:54;99362.38;;;15.60;100.00
51439;BME280;38816;51.142;-0.974;2023-07-31T01:19:23;99356.25;;;15.62;100.00
51439;BME280;38816;51.142;-0.974;2023-07-31T01:22:22;99344.19;;;15.63;100.00
51439;BME280;38816;51.142;-0.974;2023-07-31T01:27:38;99345.06;;;15.62;100.00
51439;BME280;38816;51.142;-0.974;2023-07-31T01:30:11;99340.78;;;15.59;100.00
51439;BME280;38816;51.142;-0.974;2023-07-31T01:32:43;99329.50;;;15.63;100.00
51439;BME280;38816;51.142;-0.974;2023-07-31T01:35:09;99329.50;;;15.65;100.00
51439;BME280;38816;51.142;-0.974;2023-07-31T01:37:35;99321.72;;;15.63;100.00
51439;BME280;38816;51.142;-0.974;2023-07-31T01:40:01;99331.09;;;15.72;100.00
51439;BME280;38816;51.142;-0.974;2023-07-31T01:42:26;99319.03;;;15.69;100.00
51439;BME280;38816;51.142;-0.974;2023-07-31T01:44:52;99312.06;;;15.73;100.00
51439;BME280;38816;51.142;-0.974;2023-07-31T01:47:17;99312.91;;;15.74;100.00
51439;BME280;38816;51.142;-0.974;2023-07-31T01:49:42;99302.59;;;15.70;100.00
51439;BME280;38816;51.142;-0.974;2023-07-31T01:52:08;99305.09;;;15.75;100.00
51439;BME280;38816;51.142;-0.974;2023-07-31T01:54:33;99293.03;;;15.74;100.00
51439;BME280;38816;51.142;-0.974;2023-07-31T01:56:59;99305.94;;;15.76;100.00
51439;BME280;38816;51.142;-0.974;2023-07-31T01:59:24;99280.88;;;15.78;100.00
51439;BME280;38816;51.142;-0.974;2023-07-31T02:01:50;99293.94;;;15.73;100.00
51439;BME280;38816;51.142;-0.974;2023-07-31T02:04:15;99292.16;;;15.75;100.00
51439;BME280;38816;51.142;-0.974;2023-07-31T02:06:41;99288.66;;;15.78;100.00
51439;BME280;38816;51.142;-0.974;2023-07-31T02:09:06;99293.00;;;15.76;100.00
51439;BME280;38816;51.142;-0.974;2023-07-31T02:11:32;99282.59;;;15.79;100.00
51439;BME280;38816;51.142;-0.974;2023-07-31T02:13:57;99278.28;;;15.78;100.00
51439;BME280;38816;51.142;-0.974;2023-07-31T02:16:23;99274.75;;;15.80;100.00
51439;BME280;38816;51.142;-0.974;2023-07-31T02:18:48;99264.41;;;15.80;100.00
51439;BME280;38816;51.142;-0.974;2023-07-31T02:21:13;99270.47;;;15.79;100.00
51439;BME280;38816;51.142;-0.974;2023-07-31T02:23:39;99256.63;;;15.80;100.00
51439;BME280;38816;51.142;-0.974;2023-07-31T02:26:04;99270.38;;;15.84;100.00
51439;BME280;38816;51.142;-0.974;2023-07-31T02:28:30;99253.13;;;15.83;100.00
51439;BME280;38816;51.142;-0.974;2023-07-31T02:30:55;99253.97;;;15.83;100.00
51439;BME280;38816;51.142;-0.974;2023-07-31T02:33:21;99251.34;;;15.86;100.00
51439;BME280;38816;51.142;-0.974;2023-07-31T02:35:46;99240.06;;;15.87;100.00
51439;BME280;38816;51.142;-0.974;2023-07-31T02:38:12;99244.31;;;15.91;100.00
51439;BME280;38816;51.142;-0.974;2023-07-31T02:40:39;99237.34;;;15.93;100.00
51439;BME280;38816;51.142;-0.974;2023-07-31T02:43:04;99251.25;;;15.91;100.00
51439;BME280;38816;51.142;-0.974;2023-07-31T02:45:30;99229.56;;;15.93;100.00
51439;BME280;38816;51.142;-0.974;2023-07-31T02:47:55;99234.84;;;15.90;100.00
51439;BME280;38816;51.142;-0.974;2023-07-31T02:50:20;99226.13;;;15.93;100.00
51439;BME280;38816;51.142;-0.974;2023-07-31T02:52:46;99237.44;;;15.90;100.00
51439;BME280;38816;51.142;-0.974;2023-07-31T02:55:11;99232.25;;;15.90;100.00
51439;BME280;38816;51.142;-0.974;2023-07-31T02:57:37;99228.63;;;15.98;100.00
51439;BME280;38816;51.142;-0.974;2023-07-31T03:00:03;99215.75;;;15.94;100.00
51439;BME280;38816;51.142;-0.974;2023-07-31T03:02:31;99211.41;;;15.95;100.00
51439;BME280;38816;51.142;-0.974;2023-07-31T03:04:56;99229.38;;;16.03;100.00
51439;BME280;38816;51.142;-0.974;2023-07-31T03:07:22;99217.25;;;16.05;100.00
51439;BME280;38816;51.142;-0.974;2023-07-31T03:09:47;99232.84;;;16.02;100.00
51439;BME280;38816;51.142;-0.974;2023-07-31T03:12:13;99225.16;;;15.99;100.00
51439;BME280;38816;51.142;-0.974;2023-07-31T03:14:38;99209.59;;;15.99;100.00
51439;BME280;38816;51.142;-0.974;2023-07-31T03:17:04;99215.66;;;15.98;100.00
51439;BME280;38816;51.142;-0.974;2023-07-31T03:19:32;99213.00;;;16.01;100.00
51439;BME280;38816;51.142;-0.974;2023-07-31T03:21:59;99211.25;;;16.01;100.00
51439;BME280;38816;51.142;-0.974;2023-07-31T03:24:25;99204.34;;;16.02;100.00
51439;BME280;38816;51.142;-0.974;2023-07-31T03:26:51;99198.34;;;16.00;100.00
51439;BME280;38816;51.142;-0.974;2023-07-31T03:29:16;99196.56;;;16.02;100.00
51439;BME280;38816;51.142;-0.974;2023-07-31T03:31:41;99186.22;;;16.00;100.00
51439;BME280;38816;51.142;-0.974;2023-07-31T03:34:07;99197.41;;;16.04;100.00
51439;BME280;38816;51.142;-0.974;2023-07-31T03:36:32;99189.63;;;16.02;100.00
51439;BME280;38816;51.142;-0.974;2023-07-31T03:38:58;99180.06;;;16.06;100.00
51439;BME280;38816;51.142;-0.974;2023-07-31T03:41:23;99202.53;;;16.05;100.00
51439;BME280;38816;51.142;-0.974;2023-07-31T03:43:50;99203.31;;;16.09;100.00
51439;BME280;38816;51.142;-0.974;2023-07-31T03:46:21;99197.31;;;16.07;100.00
51439;BME280;38816;51.142;-0.974;2023-07-31T03:48:47;99199.78;;;16.13;100.00
51439;BME280;38816;51.142;-0.974;2023-07-31T03:51:13;99192.06;;;16.10;100.00
51439;BME280;38816;51.142;-0.974;2023-07-31T03:53:38;99186.94;;;16.07;100.00
51439;BME280;38816;51.142;-0.974;2023-07-31T03:56:04;99179.91;;;16.12;100.00
51439;BME280;38816;51.142;-0.974;2023-07-31T03:58:29;99180.69;;;16.15;100.00
51439;BME280;38816;51.142;-0.974;2023-07-31T04:00:55;99176.44;;;16.13;100.00
51439;BME280;38816;51.142;-0.974;2023-07-31T04:03:20;99179.78;;;16.16;100.00
51439;BME280;38816;51.142;-0.974;2023-07-31T04:05:46;99185.91;;;16.14;100.00
51439;BME280;38816;51.142;-0.974;2023-07-31T04:08:11;99183.25;;;16.17;100.00
51439;BME280;38816;51.142;-0.974;2023-07-31T04:10:39;99182.47;;;16.13;100.00
51439;BME280;38816;51.142;-0.974;2023-07-31T04:13:05;99171.25;;;16.13;100.00
51439;BME280;38816;51.142;-0.974;2023-07-31T04:15:30;99169.53;;;16.12;100.00
51439;BME280;38816;51.142;-0.974;2023-07-31T04:17:55;99172.97;;;16.14;100.00
51439;BME280;38816;51.142;-0.974;2023-07-31T04:20:21;99177.28;;;16.13;100.00
51439;BME280;38816;51.142;-0.974;2023-07-31T04:22:46;99172.00;;;16.16;100.00
51439;BME280;38816;51.142;-0.974;2023-07-31T04:25:12;99169.47;;;16.15;100.00
51439;BME280;38816;51.142;-0.974;2023-07-31T04:27:37;99163.44;;;16.14;100.00
51439;BME280;38816;51.142;-0.974;2023-07-31T04:30:03;99165.06;;;16.18;100.00
51439;BME280;38816;51.142;-0.974;2023-07-31T04:32:29;99164.22;;;16.16;100.00
51439;BME280;38816;51.142;-0.974;2023-07-31T04:34:55;99158.19;;;16.17;100.00
51439;BME280;38816;51.142;-0.974;2023-07-31T04:37:20;99164.22;;;16.16;100.00
51439;BME280;38816;51.142;-0.974;2023-07-31T04:39:45;99168.56;;;16.17;100.00
51439;BME280;38816;51.142;-0.974;2023-07-31T04:42:11;99165.97;;;16.16;100.00
51439;BME280;38816;51.142;-0.974;2023-07-31T04:44:36;99172.78;;;16.20;100.00
51439;BME280;38816;51.142;-0.974;2023-07-31T04:47:02;99176.28;;;16.19;100.00
51439;BME280;38816;51.142;-0.974;2023-07-31T04:49:27;99162.44;;;16.20;100.00
51439;BME280;38816;51.142;-0.974;2023-07-31T04:51:53;99163.16;;;16.25;100.00
51439;BME280;38816;51.142;-0.974;2023-07-31T04:54:18;99169.28;;;16.23;100.00
51439;BME280;38816;51.142;-0.974;2023-07-31T04:56:44;99174.44;;;16.24;100.00
51439;BME280;38816;51.142;-0.974;2023-07-31T04:59:09;99169.13;;;16.30;100.00
51439;BME280;38816;51.142;-0.974;2023-07-31T05:01:35;99169.03;;;16.33;100.00
51439;BME280;38816;51.142;-0.974;2023-07-31T05:04:00;99176.81;;;16.33;100.00
51439;BME280;38816;51.142;-0.974;2023-07-31T05:06:26;99166.53;;;16.30;100.00
51439;BME280;38816;51.142;-0.974;2023-07-31T05:08:51;99168.91;;;16.38;100.00
51439;BME280;38816;51.142;-0.974;2023-07-31T05:11:16;99172.22;;;16.44;100.00
51439;BME280;38816;51.142;-0.974;2023-07-31T05:13:42;99166.31;;;16.39;100.00
51439;BME280;38816;51.142;-0.974;2023-07-31T05:16:07;99170.41;;;16.48;100.00
51439;BME280;38816;51.142;-0.974;2023-07-31T05:18:33;99166.22;;;16.42;100.00
51439;BME280;38816;51.142;-0.974;2023-07-31T05:20:58;99158.34;;;16.45;100.00
51439;BME280;38816;51.142;-0.974;2023-07-31T05:23:24;99166.06;;;16.49;100.00
51439;BME280;38816;51.142;-0.974;2023-07-31T05:25:49;99164.22;;;16.54;100.00
51439;BME280;38816;51.142;-0.974;2023-07-31T05:28:15;99156.50;;;16.51;100.00
51439;BME280;38816;51.142;-0.974;2023-07-31T05:30:40;99163.25;;;16.58;100.00
51439;BME280;38816;51.142;-0.974;2023-07-31T05:33:05;99166.69;;;16.58;100.00
51439;BME280;38816;51.142;-0.974;2023-07-31T05:35:31;99148.41;;;16.63;100.00
51439;BME280;38816;51.142;-0.974;2023-07-31T05:37:57;99145.72;;;16.66;100.00
51439;BME280;38816;51.142;-0.974;2023-07-31T05:40:22;99143.00;;;16.70;100.00
51439;BME280;38816;51.142;-0.974;2023-07-31T05:42:48;99152.31;;;16.79;100.00
51439;BME280;38816;51.142;-0.974;2023-07-31T05:45:13;99159.19;;;16.82;100.00
51439;BME280;38816;51.142;-0.974;2023-07-31T05:47:39;99155.69;;;16.83;100.00
51439;BME280;38816;51.142;-0.974;2023-07-31T05:50:05;99165.97;;;16.87;100.00
51439;BME280;38816;51.142;-0.974;2023-07-31T05:52:30;99169.28;;;16.92;100.00
51439;BME280;38816;51.142;-0.974;2023-07-31T05:54:56;99161.38;;;16.97;100.00
51439;BME280;38816;51.142;-0.974;2023-07-31T05:57:21;99167.19;;;17.07;100.00
51439;BME280;38816;51.142;-0.974;2023-07-31T05:59:47;99167.94;;;17.10;100.00
51439;BME280;38816;51.142;-0.974;2023-07-31T06:02:12;99169.53;;;17.16;100.00
51439;BME280;38816;51.142;-0.974;2023-07-31T06:04:38;99172.13;;;17.16;100.00
51439;BME280;38816;51.142;-0.974;2023-07-31T06:07:04;99180.03;;;17.11;100.00
51439;BME280;38816;51.142;-0.974;2023-07-31T06:09:29;99164.63;;;17.05;100.00
51439;BME280;38816;51.142;-0.974;2023-07-31T06:11:55;99160.28;;;17.06;100.00
51439;BME280;38816;51.142;-0.974;2023-07-31T06:14:20;99162.03;;;17.05;100.00
51439;BME280;38816;51.142;-0.974;2023-07-31T06:16:46;99174.16;;;17.05;100.00
51439;BME280;38816;51.142;-0.974;2023-07-31T06:19:11;99167.31;;;17.02;100.00
51439;BME280;38816;51.142;-0.974;2023-07-31T06:21:38;99154.28;;;17.04;100.00
51439;BME280;38816;51.142;-0.974;2023-07-31T06:24:05;99148.06;;;17.09;100.00
51439;BME280;38816;51.142;-0.974;2023-07-31T06:26:30;99146.22;;;17.13;100.00
51439;BME280;38816;51.142;-0.974;2023-07-31T06:28:56;99155.59;;;17.18;100.00
51439;BME280;38816;51.142;-0.974;2023-07-31T06:31:21;99161.75;;;17.16;100.00
51439;BME280;38816;51.142;-0.974;2023-07-31T06:33:52;99160.84;;;17.15;100.00
51439;BME280;38816;51.142;-0.974;2023-07-31T06:36:18;99169.34;;;17.22;100.00
51439;BME280;38816;51.142;-0.974;2023-07-31T06:38:43;99161.56;;;17.22;100.00
51439;BME280;38816;51.142;-0.974;2023-07-31T06:41:09;99162.34;;;17.24;100.00
51439;BME280;38816;51.142;-0.974;2023-07-31T06:43:36;99147.81;;;17.18;100.00
51439;BME280;38816;51.142;-0.974;2023-07-31T06:46:05;99142.47;;;17.23;100.00
51439;BME280;38816;51.142;-0.974;2023-07-31T06:48:31;99145.72;;;17.31;100.00
51439;BME280;38816;51.142;-0.974;2023-07-31T06:50:57;99144.78;;;17.34;100.00
51439;BME280;38816;51.142;-0.974;2023-07-31T06:53:22;99143.06;;;17.33;100.00
51439;BME280;38816;51.142;-0.974;2023-07-31T06:55:48;99145.63;;;17.34;100.00
51439;BME280;38816;51.142;-0.974;2023-07-31T06:58:13;99154.16;;;17.38;100.00
51439;BME280;38816;51.142;-0.974;2023-07-31T07:00:39;99157.28;;;17.51;100.00
51439;BME280;38816;51.142;-0.974;2023-07-31T07:03:04;99150.50;;;17.45;100.00
51439;BME280;38816;51.142;-0.974;2023-07-31T07:05:29;99134.88;;;17.46;100.00
51439;BME280;38816;51.142;-0.974;2023-07-31T07:07:55;99135.69;;;17.49;100.00
51439;BME280;38816;51.142;-0.974;2023-07-31T07:10:20;99135.69;;;17.49;100.00
51439;BME280;38816;51.142;-0.974;2023-07-31T07:12:46;99135.56;;;17.53;100.00
51439;BME280;38816;51.142;-0.974;2023-07-31T07:15:11;99136.22;;;17.60;100.00
51439;BME280;38816;51.142;-0.974;2023-07-31T07:17:37;99125.44;;;17.72;100.00
51439;BME280;38816;51.142;-0.974;2023-07-31T07:20:03;99123.50;;;17.80;100.00
51439;BME280;38816;51.142;-0.974;2023-07-31T07:22:29;99120.47;;;17.94;100.00
51439;BME280;38816;51.142;-0.974;2023-07-31T07:24:54;99116.88;;;17.98;100.00
51439;BME280;38816;51.142;-0.974;2023-07-31T07:27:20;99123.56;;;18.05;100.00
51439;BME280;38816;51.142;-0.974;2023-07-31T07:29:46;99121.97;;;18.01;100.00
51439;BME280;38816;51.142;-0.974;2023-07-31T07:32:12;99124.47;;;18.04;100.00
51439;BME280;38816;51.142;-0.974;2023-07-31T07:34:37;99136.47;;;18.08;100.00
51439;BME280;38816;51.142;-0.974;2023-07-31T07:37:03;99128.75;;;18.07;100.00
51439;BME280;38816;51.142;-0.974;2023-07-31T07:39:28;99123.47;;;18.08;100.00
51439;BME280;38816;51.142;-0.974;2023-07-31T07:41:54;99122.44;;;18.14;100.00
51439;BME280;38816;51.142;-0.974;2023-07-31T07:44:19;99122.34;;;18.17;100.00
51439;BME280;38816;51.142;-0.974;2023-07-31T07:46:45;99121.13;;;18.27;100.00
51439;BME280;38816;51.142;-0.974;2023-07-31T07:49:10;99118.13;;;18.39;100.00
51439;BME280;38816;51.142;-0.974;2023-07-31T07:51:36;99111.50;;;18.56;100.00
51439;BME280;38816;51.142;-0.974;2023-07-31T07:54:02;99104.63;;;18.80;100.00
51439;BME280;38816;51.142;-0.974;2023-07-31T07:56:27;99107.31;;;19.02;100.00
51439;BME280;38816;51.142;-0.974;2023-07-31T07:58:54;99100.91;;;19.10;100.00
51439;BME280;38816;51.142;-0.974;2023-07-31T08:01:20;99102.44;;;18.92;100.00
51439;BME280;38816;51.142;-0.974;2023-07-31T08:03:46;99101.63;;;18.90;100.00
51439;BME280;38816;51.142;-0.974;2023-07-31T08:06:12;99097.09;;;18.95;100.00
51439;BME280;38816;51.142;-0.974;2023-07-31T08:08:37;99099.66;;;18.97;100.00
51439;BME280;38816;51.142;-0.974;2023-07-31T08:11:03;99087.44;;;18.99;100.00
51439;BME280;38816;51.142;-0.974;2023-07-31T08:13:28;99081.88;;;19.08;100.00
51439;BME280;38816;51.142;-0.974;2023-07-31T08:15:54;99084.16;;;19.17;100.00
51439;BME280;38816;51.142;-0.974;2023-07-31T08:18:20;99079.66;;;19.21;100.00
51439;BME280;38816;51.142;-0.974;2023-07-31T08:20:45;99075.31;;;19.21;100.00
51439;BME280;38816;51.142;-0.974;2023-07-31T08:23:11;99084.09;;;19.19;100.00
51439;BME280;38816;51.142;-0.974;2023-07-31T08:25:37;99090.16;;;19.19;100.00
51439;BME280;38816;51.142;-0.974;2023-07-31T08:28:03;99083.03;;;19.25;100.00
51439;BME280;38816;51.142;-0.974;2023-07-31T08:30:29;99078.41;;;19.31;100.00
51439;BME280;38816;51.142;-0.974;2023-07-31T08:32:55;99088.72;;;19.34;100.00
51439;BME280;38816;51.142;-0.974;2023-07-31T08:35:21;99076.34;;;19.41;100.00
51439;BME280;38816;51.142;-0.974;2023-07-31T08:37:46;99067.41;;;19.46;100.00
51439;BME280;38816;51.142;-0.974;2023-07-31T08:40:12;99069.56;;;19.59;100.00
51439;BME280;38816;51.142;-0.974;2023-07-31T08:42:48;99063.22;;;19.66;100.00
51439;BME280;38816;51.142;-0.974;2023-07-31T08:45:16;99066.38;;;19.74;100.00
51439;BME280;38816;51.142;-0.974;2023-07-31T08:47:44;99064.59;;;19.96;100.00
51439;BME280;38816;51.142;-0.974;2023-07-31T08:50:12;99070.63;;;20.19;100.00
51439;BME280;38816;51.142;-0.974;2023-07-31T08:52:38;99058.13;;;20.47;100.00
51439;BME280;38816;51.142;-0.974;2023-07-31T08:55:05;99067.97;;;20.61;100.00
51439;BME280;38816;51.142;-0.974;2023-07-31T08:57:31;99075.41;;;20.70;100.00
51439;BME280;38816;51.142;-0.974;2023-07-31T08:59:59;99075.59;;;20.66;100.00
51439;BME280;38816;51.142;-0.974;2023-07-31T09:02:31;99085.31;;;20.42;100.00
51439;BME280;38816;51.142;-0.974;2023-07-31T09:05:00;99088.97;;;20.17;100.00
51439;BME280;38816;51.142;-0.974;2023-07-31T09:07:26;99066.16;;;20.01;100.00
51439;BME280;38816;51.142;-0.974;2023-07-31T09:09:52;99057.91;;;19.89;100.00
51439;BME280;38816;51.142;-0.974;2023-07-31T09:12:18;99035.91;;;19.75;100.00
51439;BME280;38816;51.142;-0.974;2023-07-31T09:14:45;99034.41;;;19.69;100.00
51439;BME280;38816;51.142;-0.974;2023-07-31T09:17:11;99046.72;;;19.65;100.00
51439;BME280;38816;51.142;-0.974;2023-07-31T09:19:36;99064.00;;;19.68;100.00
51439;BME280;38816;51.142;-0.974;2023-07-31T09:22:06;99073.38;;;19.72;100.00
51439;BME280;38816;51.142;-0.974;2023-07-31T09:24:32;99061.38;;;19.90;100.00
51439;BME280;38816;51.142;-0.974;2023-07-31T09:27:00;99064.88;;;20.11;100.00
51439;BME280;38816;51.142;-0.974;2023-07-31T09:29:27;99066.06;;;20.24;100.00
51439;BME280;38816;51.142;-0.974;2023-07-31T09:31:54;99033.66;;;20.50;100.00
51439;BME280;38816;51.142;-0.974;2023-07-31T09:34:20;99006.41;;;20.76;100.00
51439;BME280;38816;51.142;-0.974;2023-07-31T09:36:53;99019.78;;;21.08;100.00
51439;BME280;38816;51.142;-0.974;2023-07-31T09:39:18;99026.03;;;21.22;100.00
51439;BME280;38816;51.142;-0.974;2023-07-31T09:41:54;99035.06;;;21.15;100.00
51439;BME280;38816;51.142;-0.974;2023-07-31T09:44:19;99046.53;;;21.13;100.00
51439;BME280;38816;51.142;-0.974;2023-07-31T09:46:45;99044.81;;;21.12;100.00
51439;BME280;38816;51.142;-0.974;2023-07-31T09:49:12;99016.69;;;20.98;100.00
51439;BME280;38816;51.142;-0.974;2023-07-31T09:51:39;99022.00;;;20.78;100.00
51439;BME280;38816;51.142;-0.974;2023-07-31T09:56:47;99029.59;;;20.22;100.00
51439;BME280;38816;51.142;-0.974;2023-07-31T09:59:16;99033.97;;;20.22;100.00
51439;BME280;38816;51.142;-0.974;2023-07-31T10:01:43;99063.44;;;20.24;100.00
51439;BME280;38816;51.142;-0.974;2023-07-31T10:04:11;99039.56;;;20.13;100.00
51439;BME280;38816;51.142;-0.974;2023-07-31T10:06:38;99024.81;;;20.12;100.00
51439;BME280;38816;51.142;-0.974;2023-07-31T10:09:08;99046.41;;;20.15;100.00
51439;BME280;38816;51.142;-0.974;2023-07-31T10:11:38;99058.34;;;20.01;100.00
51439;BME280;38816;51.142;-0.974;2023-07-31T10:14:07;99061.25;;;19.93;100.00
51439;BME280;38816;51.142;-0.974;2023-07-31T10:16:34;99074.66;;;19.84;100.00
51439;BME280;38816;51.142;-0.974;2023-07-31T10:19:00;99078.84;;;19.66;100.00
51439;BME280;38816;51.142;-0.974;2023-07-31T10:21:27;99090.38;;;19.60;100.00
51439;BME280;38816;51.142;-0.974;2023-07-31T10:23:53;99093.88;;;19.59;100.00
51439;BME280;38816;51.142;-0.974;2023-07-31T10:26:20;99085.09;;;19.62;100.00
51439;BME280;38816;51.142;-0.974;2023-07-31T10:28:48;99092.69;;;19.68;100.00
51439;BME280;38816;51.142;-0.974;2023-07-31T10:31:16;99094.88;;;19.79;98.38
51439;BME280;38816;51.142;-0.974;2023-07-31T10:33:43;99082.19;;;19.69;98.67
51439;BME280;38816;51.142;-0.974;2023-07-31T10:36:18;99089.53;;;19.58;99.79
51439;BME280;38816;51.142;-0.974;2023-07-31T10:38:44;99081.59;;;19.39;100.00
51439;BME280;38816;51.142;-0.974;2023-07-31T10:41:09;99071.28;;;19.36;100.00
51439;BME280;38816;51.142;-0.974;2023-07-31T10:43:36;99071.63;;;19.27;100.00
51439;BME280;38816;51.142;-0.974;2023-07-31T10:46:11;99064.84;;;19.23;100.00
51439;BME280;38816;51.142;-0.974;2023-07-31T10:48:38;99064.22;;;19.16;100.00
51439;BME280;38816;51.142;-0.974;2023-07-31T10:51:10;99062.41;;;19.18;100.00
51439;BME280;38816;51.142;-0.974;2023-07-31T10:53:37;99070.78;;;19.27;100.00
51439;BME280;38816;51.142;-0.974;2023-07-31T10:56:05;99065.94;;;19.39;100.00
51439;BME280;38816;51.142;-0.974;2023-07-31T10:58:31;99075.66;;;19.58;100.00
51439;BME280;38816;51.142;-0.974;2023-07-31T11:01:02;99076.16;;;19.67;100.00
51439;BME280;38816;51.142;-0.974;2023-07-31T11:03:50;99078.50;;;19.75;100.00
51439;BME280;38816;51.142;-0.974;2023-07-31T11:06:18;99070.25;;;19.86;100.00
51439;BME280;38816;51.142;-0.974;2023-07-31T11:08:52;99062.81;;;19.97;100.00
51439;BME280;38816;51.142;-0.974;2023-07-31T11:11:19;99057.13;;;20.09;100.00
51439;BME280;38816;51.142;-0.974;2023-07-31T11:13:49;99028.94;;;20.17;100.00
51439;BME280;38816;51.142;-0.974;2023-07-31T11:16:16;99020.06;;;20.21;100.00
51439;BME280;38816;51.142;-0.974;2023-07-31T11:18:46;99023.13;;;20.11;100.00
51439;BME280;38816;51.142;-0.974;2023-07-31T11:21:21;99056.03;;;19.93;100.00
51439;BME280;38816;51.142;-0.974;2023-07-31T11:23:52;99042.41;;;19.64;100.00
51439;BME280;38816;51.142;-0.974;2023-07-31T11:26:18;99048.16;;;19.51;100.00
51439;BME280;38816;51.142;-0.974;2023-07-31T11:28:46;99066.13;;;19.35;100.00
51439;BME280;38816;51.142;-0.974;2023-07-31T11:31:12;99081.53;;;19.17;100.00
51439;BME280;38816;51.142;-0.974;2023-07-31T11:33:37;99086.34;;;19.05;100.00
51439;BME280;38816;51.142;-0.974;2023-07-31T11:36:03;99093.94;;;18.87;100.00
51439;BME280;38816;51.142;-0.974;2023-07-31T11:38:33;99091.78;;;18.75;100.00
51439;BME280;38816;51.142;-0.974;2023-07-31T11:41:00;99098.59;;;18.78;100.00
51439;BME280;38816;51.142;-0.974;2023-07-31T11:43:28;99080.00;;;18.88;100.00
51439;BME280;38816;51.142;-0.974;2023-07-31T11:46:00;99083.03;;;19.01;100.00
51439;BME280;38816;51.142;-0.974;2023-07-31T11:48:35;99076.91;;;19.02;100.00
51439;BME280;38816;51.142;-0.974;2023-07-31T11:51:02;99082.69;;;18.87;100.00
51439;BME280;38816;51.142;-0.974;2023-07-31T11:53:35;99077.16;;;18.71;100.00
51439;BME280;38816;51.142;-0.974;2023-07-31T11:56:03;99059.91;;;18.67;100.00
51439;BME280;38816;51.142;-0.974;2023-07-31T11:58:33;99073.84;;;18.66;100.00
51439;BME280;38816;51.142;-0.974;2023-07-31T12:00:59;99065.34;;;18.61;100.00
51439;BME280;38816;51.142;-0.974;2023-07-31T12:03:25;99065.69;;;18.50;100.00
51439;BME280;38816;51.142;-0.974;2023-07-31T12:05:53;99056.25;;;18.47;100.00
51439;BME280;38816;51.142;-0.974;2023-07-31T12:08:20;99063.41;;;18.41;100.00
51439;BME280;38816;51.142;-0.974;2023-07-31T12:10:46;99054.25;;;18.31;100.00
51439;BME280;38816;51.142;-0.974;2023-07-31T12:13:21;99035.56;;;18.19;100.00
51439;BME280;38816;51.142;-0.974;2023-07-31T12:15:47;99035.41;;;17.98;100.00
51439;BME280;38816;51.142;-0.974;2023-07-31T12:18:15;99043.97;;;17.73;100.00
51439;BME280;38816;51.142;-0.974;2023-07-31T12:21:08;99044.47;;;17.58;100.00
51439;BME280;38816;51.142;-0.974;2023-07-31T12:23:36;99037.75;;;17.51;100.00
51439;BME280;38816;51.142;-0.974;2023-07-31T12:26:08;99033.88;;;17.36;100.00
51439;BME280;38816;51.142;-0.974;2023-07-31T12:28:44;99029.72;;;17.30;100.00
51439;BME280;38816;51.142;-0.974;2023-07-31T12:31:14;99024.63;;;17.27;100.00
51439;BME280;38816;51.142;-0.974;2023-07-31T12:33:41;99021.41;;;17.19;100.00
51439;BME280;38816;51.142;-0.974;2023-07-31T12:36:25;99034.03;;;17.02;100.00
51439;BME280;38816;51.142;-0.974;2023-07-31T12:38:52;99034.69;;;16.79;100.00
51439;BME280;38816;51.142;-0.974;2023-07-31T12:41:18;99017.06;;;16.59;100.00
51439;BME280;38816;51.142;-0.974;2023-07-31T12:43:44;99007.72;;;16.52;100.00
51439;BME280;38816;51.142;-0.974;2023-07-31T12:46:10;99014.06;;;16.41;100.00
51439;BME280;38816;51.142;-0.974;2023-07-31T12:48:37;99019.19;;;16.43;100.00